createdAt,value
2019-03-29T00:00:00.691Z,31.15
2019-03-29T00:02:31.123Z,38.13
2019-03-29T00:05:01.652Z,28.62
2019-03-29T00:07:39.555Z,38.35
2019-03-29T00:10:04.969Z,39.55
2019-03-29T00:12:35.382Z,34.60
2019-03-29T00:15:07.925Z,33.05
2019-03-29T00:17:38.560Z,31.75
2019-03-29T00:20:09.036Z,39.48
2019-03-29T00:22:39.149Z,38.08
2019-03-29T00:25:09.690Z,41.15
2019-03-29T00:27:40.343Z,33.95
2019-03-29T00:30:10.836Z,42.00
2019-03-29T00:32:41.368Z,45.28
2019-03-29T00:35:11.893Z,53.38
2019-03-29T00:37:52.727Z,49.65
2019-03-29T00:40:15.420Z,50.80
2019-03-29T00:42:45.538Z,49.38
2019-03-29T00:45:15.849Z,55.88
2019-03-29T00:47:46.176Z,52.75
2019-03-29T00:50:16.604Z,65.17
2019-03-29T00:52:47.050Z,63.63
2019-03-29T00:55:17.366Z,58.45
2019-03-29T00:57:47.672Z,72.53
2019-03-29T01:00:18.103Z,59.83
2019-03-29T01:02:48.605Z,58.10
2019-03-29T01:05:19.091Z,45.30
2019-03-29T01:07:49.697Z,38.65
2019-03-29T01:10:20.016Z,37.67
2019-03-29T01:12:50.456Z,40.63
2019-03-29T01:15:20.869Z,39.90
2019-03-29T01:17:51.200Z,29.70
2019-03-29T01:20:21.922Z,27.25
2019-03-29T01:22:52.368Z,24.92
2019-03-29T01:25:22.897Z,27.10
2019-03-29T01:27:53.110Z,28.45
2019-03-29T01:30:23.543Z,30.15
2019-03-29T01:32:54.066Z,28.70
2019-03-29T01:35:24.586Z,26.00
2019-03-29T01:37:55.014Z,27.52
2019-03-29T01:40:25.759Z,30.57
2019-03-29T01:42:55.802Z,34.60
2019-03-29T01:45:26.522Z,36.63
2019-03-29T01:47:57.042Z,37.83
2019-03-29T01:50:27.267Z,34.50
2019-03-29T01:52:57.684Z,35.58
2019-03-29T01:55:28.213Z,36.93
2019-03-29T01:57:59.087Z,40.65
2019-03-29T02:00:30.603Z,35.85
2019-03-29T02:03:01.046Z,43.95
2019-03-29T02:05:31.155Z,38.15
2019-03-29T02:08:01.576Z,48.70
2019-03-29T02:10:32.014Z,51.05
2019-03-29T02:13:02.094Z,43.75
2019-03-29T02:15:33.485Z,42.98
2019-03-29T02:18:04.108Z,45.92
2019-03-29T02:20:34.423Z,43.83
2019-03-29T02:23:04.750Z,36.30
2019-03-29T02:25:35.042Z,45.35
2019-03-29T02:28:05.720Z,43.42
2019-03-29T02:30:36.132Z,38.45
2019-03-29T02:33:06.773Z,38.45
2019-03-29T02:35:38.451Z,40.52
2019-03-29T02:38:09.695Z,38.10
2019-03-29T02:40:40.101Z,40.83
2019-03-29T02:43:11.121Z,33.85
2019-03-29T02:45:42.506Z,33.80
2019-03-29T02:48:12.914Z,35.78
2019-03-29T02:50:43.338Z,36.53
2019-03-29T02:53:13.865Z,31.30
2019-03-29T02:55:45.320Z,30.30
2019-03-29T02:58:15.655Z,38.88
2019-03-29T03:00:47.738Z,38.00
2019-03-29T03:03:18.137Z,44.63
2019-03-29T03:05:48.559Z,45.83
2019-03-29T03:08:19.095Z,42.15
2019-03-29T03:10:49.838Z,44.53
2019-03-29T03:13:20.251Z,41.80
2019-03-29T03:15:50.678Z,37.23
2019-03-29T03:18:21.514Z,40.55
2019-03-29T03:20:52.068Z,42.73
2019-03-29T03:23:22.370Z,42.85
2019-03-29T03:25:52.897Z,41.60
2019-03-29T03:28:24.349Z,43.17
2019-03-29T03:30:54.681Z,38.67
2019-03-29T03:33:24.891Z,46.63
2019-03-29T03:35:55.330Z,42.93
2019-03-29T03:38:25.750Z,42.15
2019-03-29T03:40:56.156Z,45.70
2019-03-29T03:43:27.731Z,40.23
2019-03-29T03:45:58.216Z,60.90
2019-03-29T03:48:29.719Z,53.30
2019-03-29T03:51:00.252Z,58.10
2019-03-29T03:53:30.784Z,56.45
2019-03-29T03:56:01.200Z,61.70
2019-03-29T03:58:31.860Z,55.55
2019-03-29T04:01:02.252Z,56.37
2019-03-29T04:03:32.798Z,61.13
2019-03-29T04:06:02.936Z,54.83
2019-03-29T04:08:33.331Z,62.38
2019-03-29T04:11:04.095Z,56.68
2019-03-29T04:13:34.197Z,52.88
2019-03-29T04:16:04.837Z,48.20
2019-03-29T04:18:35.451Z,50.75
2019-03-29T04:21:05.783Z,47.03
2019-03-29T04:23:36.211Z,48.68
2019-03-29T04:26:06.343Z,49.10
2019-03-29T04:28:36.740Z,41.53
2019-03-29T04:31:07.348Z,48.20
2019-03-29T04:33:37.409Z,48.52
2019-03-29T04:36:07.919Z,53.58
2019-03-29T04:38:38.352Z,44.35
2019-03-29T04:41:08.691Z,45.92
2019-03-29T04:43:38.965Z,50.25
2019-03-29T04:46:09.322Z,50.58
2019-03-29T04:48:39.647Z,44.95
2019-03-29T04:51:10.046Z,43.78
2019-03-29T04:53:40.293Z,47.88
2019-03-29T04:56:10.826Z,43.05
2019-03-29T04:58:41.353Z,48.05
2019-03-29T05:01:11.885Z,42.65
2019-03-29T05:03:42.416Z,37.58
2019-03-29T05:06:13.876Z,41.70
2019-03-29T05:08:44.407Z,39.65
2019-03-29T05:11:14.833Z,43.33
2019-03-29T05:13:44.935Z,36.35
2019-03-29T05:16:15.339Z,38.30
2019-03-29T05:18:45.664Z,37.13
2019-03-29T05:21:16.116Z,36.45
2019-03-29T05:23:46.846Z,35.78
2019-03-29T05:26:17.185Z,29.95
2019-03-29T05:28:47.824Z,38.73
2019-03-29T05:31:17.795Z,34.43
2019-03-29T05:33:48.249Z,32.03
2019-03-29T05:36:18.690Z,30.50
2019-03-29T05:38:48.977Z,32.58
2019-03-29T05:41:19.433Z,34.20
2019-03-29T05:43:49.869Z,31.20
2019-03-29T05:46:20.192Z,28.47
2019-03-29T05:48:50.304Z,36.15
2019-03-29T05:51:21.049Z,30.43
2019-03-29T05:53:51.560Z,22.45
2019-03-29T05:56:21.883Z,20.95
2019-03-29T05:58:52.416Z,23.35
2019-03-29T06:01:22.736Z,29.35
2019-03-29T06:03:53.191Z,26.65
2019-03-29T06:06:23.568Z,26.90
2019-03-29T06:08:54.023Z,19.00
2019-03-29T06:11:24.429Z,30.57
2019-03-29T06:13:55.085Z,22.85
2019-03-29T06:16:38.286Z,26.45
2019-03-29T06:18:57.573Z,31.73
2019-03-29T06:21:28.017Z,35.35
2019-03-29T06:23:58.534Z,35.95
2019-03-29T06:26:28.660Z,32.20
2019-03-29T06:28:58.771Z,27.15
2019-03-29T06:31:30.334Z,25.68
2019-03-29T06:34:00.652Z,22.27
2019-03-29T06:36:31.048Z,24.82
2019-03-29T06:39:01.514Z,24.67
2019-03-29T06:41:33.109Z,22.70
2019-03-29T06:44:03.584Z,28.10
2019-03-29T06:46:35.341Z,21.17
2019-03-29T06:49:05.881Z,29.12
2019-03-29T06:51:36.348Z,32.78
2019-03-29T06:54:06.945Z,24.55
2019-03-29T06:56:37.453Z,28.32
2019-03-29T06:59:07.958Z,33.65
2019-03-29T07:01:38.412Z,36.30
2019-03-29T07:04:08.853Z,26.82
2019-03-29T07:06:39.035Z,27.22
2019-03-29T07:09:09.240Z,24.20
2019-03-29T07:11:39.885Z,43.45
2019-03-29T07:14:10.253Z,48.40
2019-03-29T07:16:40.486Z,36.90
2019-03-29T07:19:11.017Z,41.20
2019-03-29T07:21:41.422Z,40.73
2019-03-29T07:24:11.943Z,31.00
2019-03-29T07:26:42.343Z,32.80
2019-03-29T07:29:12.724Z,33.13
2019-03-29T07:31:43.206Z,26.93
2019-03-29T07:34:13.670Z,29.30
2019-03-29T07:36:44.185Z,24.25
2019-03-29T07:39:14.866Z,25.35
2019-03-29T07:41:44.943Z,24.15
2019-03-29T07:44:15.366Z,22.98
2019-03-29T07:46:45.800Z,22.50
2019-03-29T07:49:16.418Z,24.82
2019-03-29T07:51:46.954Z,32.33
2019-03-29T07:54:17.491Z,33.75
2019-03-29T07:56:47.903Z,26.55
2019-03-29T07:59:18.558Z,25.48
2019-03-29T08:01:48.619Z,23.05
2019-03-29T08:04:21.635Z,21.02
2019-03-29T08:06:51.231Z,25.17
2019-03-29T08:09:22.884Z,27.25
2019-03-29T08:11:53.127Z,25.95
2019-03-29T08:14:23.774Z,21.93
2019-03-29T08:16:53.790Z,20.82
2019-03-29T08:19:24.015Z,23.55
2019-03-29T08:21:57.636Z,17.92
2019-03-29T08:24:26.494Z,21.00
2019-03-29T08:26:56.918Z,26.05
2019-03-29T08:29:27.449Z,25.90
2019-03-29T08:31:57.983Z,16.73
2019-03-29T08:34:28.405Z,16.60
2019-03-29T08:36:58.731Z,17.77
2019-03-29T08:39:29.262Z,25.92
2019-03-29T08:42:00.683Z,23.45
2019-03-29T08:44:32.280Z,16.70
2019-03-29T08:47:02.705Z,15.03
2019-03-29T08:49:32.814Z,18.40
2019-03-29T08:52:03.284Z,13.38
2019-03-29T08:54:33.770Z,13.90
2019-03-29T08:57:04.223Z,27.55
2019-03-29T08:59:36.572Z,13.75
2019-03-29T09:02:08.439Z,13.40
2019-03-29T09:04:38.558Z,16.97
2019-03-29T09:07:10.105Z,23.95
2019-03-29T09:09:41.237Z,17.07
2019-03-29T09:12:14.603Z,15.35
2019-03-29T09:14:43.979Z,15.28
2019-03-29T09:17:14.514Z,17.85
2019-03-29T09:19:44.995Z,17.92
2019-03-29T09:22:15.445Z,12.20
2019-03-29T09:24:45.641Z,12.82
2019-03-29T09:27:16.079Z,14.33
2019-03-29T09:29:46.623Z,12.13
2019-03-29T09:32:16.923Z,10.72
2019-03-29T09:34:47.680Z,14.07
2019-03-29T09:37:17.699Z,14.23
2019-03-29T09:39:48.212Z,11.43
2019-03-29T09:42:29.168Z,11.65
2019-03-29T09:44:52.267Z,14.70
2019-03-29T09:47:22.870Z,20.02
2019-03-29T09:49:53.319Z,13.18
2019-03-29T09:52:23.764Z,13.68
2019-03-29T09:54:54.259Z,10.68
2019-03-29T09:57:36.890Z,12.05
2019-03-29T09:59:56.966Z,12.63
2019-03-29T10:02:27.482Z,8.83
2019-03-29T10:04:57.727Z,8.78
2019-03-29T10:07:28.233Z,10.03
2019-03-29T10:09:58.960Z,9.80
2019-03-29T10:12:42.655Z,8.88
2019-03-29T10:15:01.378Z,14.43
2019-03-29T10:17:31.907Z,12.82
2019-03-29T10:20:02.844Z,10.48
2019-03-29T10:22:33.047Z,14.50
2019-03-29T10:25:18.564Z,11.43
2019-03-29T10:30:06.975Z,10.55
2019-03-29T10:32:37.616Z,10.48
2019-03-29T10:35:08.046Z,17.23
2019-03-29T10:37:38.591Z,13.83
2019-03-29T10:40:08.862Z,14.07
2019-03-29T10:42:40.348Z,15.68
2019-03-29T10:45:11.185Z,15.75
2019-03-29T10:47:44.014Z,16.20
2019-03-29T10:52:44.004Z,12.28
2019-03-29T10:55:14.449Z,10.08
2019-03-29T10:57:45.271Z,11.57
2019-03-29T11:00:21.473Z,9.90
2019-03-29T11:02:50.734Z,11.85
2019-03-29T11:05:22.196Z,14.70
2019-03-29T11:07:52.157Z,10.80
2019-03-29T11:10:29.865Z,13.35
2019-03-29T11:13:11.963Z,14.70
2019-03-29T11:15:32.300Z,13.53
2019-03-29T11:18:03.026Z,12.20
2019-03-29T11:20:33.562Z,12.18
2019-03-29T11:23:04.088Z,11.55
2019-03-29T11:25:34.802Z,6.12
2019-03-29T11:28:05.560Z,6.90
2019-03-29T11:30:41.991Z,7.45
2019-03-29T11:33:07.839Z,9.13
2019-03-29T11:35:38.584Z,7.05
2019-03-29T11:38:08.692Z,10.08
2019-03-29T11:40:39.226Z,11.95
2019-03-29T11:43:09.749Z,8.53
2019-03-29T11:45:41.103Z,17.12
2019-03-29T11:48:11.454Z,7.17
2019-03-29T11:50:41.973Z,11.08
2019-03-29T11:53:12.273Z,5.87
2019-03-29T11:55:42.592Z,9.43
2019-03-29T11:58:13.127Z,9.88
2019-03-29T12:00:43.555Z,14.45
2019-03-29T12:03:13.883Z,8.20
2019-03-29T12:05:44.416Z,9.48
2019-03-29T12:08:14.952Z,7.95
2019-03-29T12:10:45.897Z,11.57
2019-03-29T12:13:16.408Z,13.72
2019-03-29T12:15:47.363Z,14.13
2019-03-29T12:18:17.569Z,8.85
2019-03-29T12:20:47.792Z,8.53
2019-03-29T12:23:18.342Z,7.00
2019-03-29T12:25:49.273Z,9.53
2019-03-29T12:28:19.379Z,11.53
2019-03-29T12:30:50.011Z,9.48
2019-03-29T12:33:20.336Z,7.25
2019-03-29T12:35:50.875Z,9.33
2019-03-29T12:38:20.974Z,7.30
2019-03-29T12:40:51.510Z,6.62
2019-03-29T12:43:21.944Z,8.13
2019-03-29T12:45:52.374Z,8.25
2019-03-29T12:48:22.583Z,19.23
2019-03-29T12:50:53.233Z,8.23
2019-03-29T12:53:23.574Z,10.50
2019-03-29T12:55:54.066Z,9.63
2019-03-29T12:58:24.491Z,15.45
2019-03-29T13:00:54.957Z,13.35
2019-03-29T13:03:25.561Z,7.92
2019-03-29T13:05:55.873Z,9.15
2019-03-29T13:08:26.325Z,10.45
2019-03-29T13:10:56.533Z,10.18
2019-03-29T13:13:27.065Z,10.40
2019-03-29T13:15:57.706Z,11.68
2019-03-29T13:18:27.710Z,9.18
2019-03-29T13:20:58.211Z,10.25
2019-03-29T13:23:28.693Z,9.58
2019-03-29T13:25:58.969Z,14.03
2019-03-29T13:28:29.440Z,9.10
2019-03-29T13:30:59.928Z,21.33
2019-03-29T13:33:30.479Z,12.70
2019-03-29T13:36:00.529Z,8.95
2019-03-29T13:38:31.057Z,13.80
2019-03-29T13:41:01.423Z,12.93
2019-03-29T13:43:31.893Z,8.65
2019-03-29T13:46:04.860Z,16.55
2019-03-29T13:48:35.303Z,9.70
2019-03-29T13:51:05.722Z,18.10
2019-03-29T13:53:36.140Z,14.45
2019-03-29T13:56:06.586Z,23.10
2019-03-29T13:58:37.119Z,18.37
2019-03-29T14:01:07.225Z,15.53
2019-03-29T14:03:37.630Z,11.97
2019-03-29T14:06:08.088Z,10.15
2019-03-29T14:08:38.766Z,13.00
2019-03-29T14:11:09.238Z,23.40
2019-03-29T14:13:39.572Z,11.78
2019-03-29T14:16:09.879Z,9.88
2019-03-29T14:18:40.211Z,11.12
2019-03-29T14:21:10.655Z,10.13
2019-03-29T14:23:40.863Z,8.15
2019-03-29T14:26:11.204Z,13.93
2019-03-29T14:28:41.818Z,24.32
2019-03-29T14:31:12.565Z,16.10
2019-03-29T14:33:44.013Z,10.10
2019-03-29T14:36:14.535Z,18.48
2019-03-29T14:38:44.957Z,10.40
2019-03-29T14:41:15.997Z,8.33
2019-03-29T14:43:46.177Z,10.72
2019-03-29T14:46:16.660Z,11.38
2019-03-29T14:48:47.087Z,10.72
2019-03-29T14:51:17.505Z,19.27
2019-03-29T14:53:47.964Z,11.43
2019-03-29T14:56:18.470Z,15.10
2019-03-29T14:58:49.550Z,13.13
2019-03-29T15:01:20.029Z,24.47
2019-03-29T15:03:50.377Z,15.55
2019-03-29T15:06:20.658Z,16.45
2019-03-29T15:08:51.209Z,9.60
2019-03-29T15:11:22.882Z,12.05
2019-03-29T15:13:53.509Z,17.73
2019-03-29T15:16:24.148Z,9.30
2019-03-29T15:18:54.558Z,11.08
2019-03-29T15:21:25.202Z,10.75
2019-03-29T15:23:55.305Z,16.55
2019-03-29T15:26:26.776Z,14.68
2019-03-29T15:28:57.181Z,14.95
2019-03-29T15:31:27.641Z,11.25
2019-03-29T15:33:58.063Z,15.25
2019-03-29T15:36:28.370Z,21.90
2019-03-29T15:38:58.809Z,27.13
2019-03-29T15:41:29.221Z,19.07
2019-03-29T15:43:59.376Z,22.70
2019-03-29T15:46:29.497Z,15.05
2019-03-29T15:48:59.882Z,17.40
2019-03-29T15:51:30.323Z,27.73
2019-03-29T15:54:00.852Z,16.15
2019-03-29T15:56:31.383Z,15.50
2019-03-29T15:59:01.915Z,19.50
2019-03-29T16:01:32.034Z,16.87
2019-03-29T16:04:03.055Z,18.30
2019-03-29T16:06:33.633Z,18.70
2019-03-29T16:09:05.569Z,18.73
2019-03-29T16:11:35.976Z,22.25
2019-03-29T16:14:06.529Z,28.87
2019-03-29T16:16:36.744Z,35.30
2019-03-29T16:19:07.281Z,41.68
2019-03-29T16:21:37.609Z,33.30
2019-03-29T16:24:08.323Z,38.48
2019-03-29T16:26:38.331Z,32.55
2019-03-29T16:29:09.389Z,31.35
2019-03-29T16:31:40.127Z,25.55
2019-03-29T16:34:10.233Z,29.80
2019-03-29T16:36:40.757Z,25.95
2019-03-29T16:39:11.406Z,28.65
2019-03-29T16:41:42.146Z,38.45
2019-03-29T16:44:13.405Z,43.38
2019-03-29T16:46:44.121Z,40.00
2019-03-29T16:49:14.737Z,44.00
2019-03-29T16:51:45.077Z,46.33
2019-03-29T16:54:19.184Z,40.55
2019-03-29T16:56:49.635Z,46.68
2019-03-29T16:59:19.987Z,42.98
2019-03-29T17:01:51.414Z,40.40
2019-03-29T17:04:23.161Z,33.85
2019-03-29T17:06:53.569Z,32.80
2019-03-29T17:09:24.224Z,36.30
2019-03-29T17:11:54.928Z,39.13
2019-03-29T17:14:25.450Z,40.33
2019-03-29T17:16:55.774Z,52.62
2019-03-29T17:19:26.759Z,33.25
2019-03-29T17:21:57.143Z,39.42
2019-03-29T17:24:27.697Z,34.18
2019-03-29T17:26:57.717Z,33.55
2019-03-29T17:29:29.656Z,27.20
2019-03-29T17:32:00.306Z,28.73
2019-03-29T17:34:30.642Z,27.62
2019-03-29T17:37:01.364Z,22.77
2019-03-29T17:39:32.540Z,21.73
2019-03-29T17:42:03.229Z,22.32
2019-03-29T17:44:33.239Z,17.82
2019-03-29T17:47:03.888Z,26.05
2019-03-29T17:49:33.921Z,18.25
2019-03-29T17:52:05.158Z,21.60
2019-03-29T17:54:35.256Z,24.67
2019-03-29T17:57:05.694Z,18.17
2019-03-29T17:59:35.971Z,23.45
2019-03-29T18:02:09.534Z,25.30
2019-03-29T18:04:38.605Z,32.67
2019-03-29T18:07:08.934Z,28.92
2019-03-29T18:09:39.470Z,25.48
2019-03-29T18:12:11.348Z,31.40
2019-03-29T18:14:41.982Z,30.50
2019-03-29T18:17:12.490Z,36.77
2019-03-29T18:19:43.226Z,36.77
2019-03-29T18:22:13.651Z,43.45
2019-03-29T18:24:43.988Z,49.53
2019-03-29T18:27:14.292Z,46.95
2019-03-29T18:29:44.717Z,47.13
2019-03-29T18:32:17.359Z,49.70
2019-03-29T18:34:48.346Z,45.73
2019-03-29T18:37:18.764Z,38.28
2019-03-29T18:39:49.149Z,43.58
2019-03-29T18:42:19.615Z,32.75
2019-03-29T18:44:50.153Z,33.63
2019-03-29T18:47:20.484Z,38.73
2019-03-29T18:49:51.221Z,32.65
2019-03-29T18:52:21.325Z,37.90
2019-03-29T18:54:51.859Z,29.50
2019-03-29T18:57:22.282Z,34.20
2019-03-29T18:59:52.810Z,38.83
2019-03-29T19:02:23.234Z,41.23
2019-03-29T19:04:53.777Z,37.13
2019-03-29T19:07:26.773Z,36.98
2019-03-29T19:09:57.716Z,41.70
2019-03-29T19:12:27.857Z,38.02
2019-03-29T19:14:58.344Z,37.13
2019-03-29T19:17:28.902Z,32.88
2019-03-29T19:19:59.411Z,44.53
2019-03-29T19:22:29.493Z,37.45
2019-03-29T19:25:01.291Z,40.12
2019-03-29T19:27:31.670Z,38.13
2019-03-29T19:30:02.351Z,31.97
2019-03-29T19:32:32.357Z,40.15
2019-03-29T19:35:02.999Z,34.45
2019-03-29T19:37:33.322Z,24.80
2019-03-29T19:40:05.694Z,33.70
2019-03-29T19:42:35.802Z,38.83
2019-03-29T19:45:08.996Z,34.90
2019-03-29T19:47:39.532Z,33.38
2019-03-29T19:50:10.047Z,32.53
2019-03-29T19:52:40.693Z,33.13
2019-03-29T19:55:12.155Z,40.55
2019-03-29T19:57:42.271Z,34.25
2019-03-29T20:00:13.619Z,51.10
2019-03-29T20:02:43.702Z,42.25
2019-03-29T20:05:25.209Z,38.65
2019-03-29T20:07:55.845Z,42.73
2019-03-29T20:10:27.118Z,51.13
2019-03-29T20:12:57.620Z,44.58
2019-03-29T20:15:28.046Z,52.00
2019-03-29T20:17:58.474Z,49.00
2019-03-29T20:20:29.011Z,37.95
2019-03-29T20:22:59.739Z,42.95
2019-03-29T20:25:30.266Z,39.23
2019-03-29T20:28:00.795Z,41.28
2019-03-29T20:30:31.315Z,40.05
2019-03-29T20:33:01.759Z,36.75
2019-03-29T20:35:32.307Z,37.93
2019-03-29T20:38:02.926Z,42.60
2019-03-29T20:40:33.238Z,45.20
2019-03-29T20:43:03.661Z,44.38
2019-03-29T20:45:34.098Z,40.00
2019-03-29T20:48:04.455Z,53.92
2019-03-29T20:50:35.041Z,40.12
2019-03-29T20:53:05.894Z,52.73
2019-03-29T20:55:36.218Z,40.95
2019-03-29T20:58:06.638Z,39.83
2019-03-29T21:00:37.169Z,39.08
2019-03-29T21:03:07.699Z,41.40
2019-03-29T21:05:38.119Z,34.13
2019-03-29T21:08:08.544Z,27.40
2019-03-29T21:10:39.141Z,28.32
2019-03-29T21:13:09.300Z,26.73
2019-03-29T21:15:39.718Z,22.62
2019-03-29T21:18:10.255Z,22.07
2019-03-29T21:20:40.679Z,22.80
2019-03-29T21:23:11.512Z,24.77
2019-03-29T21:25:41.861Z,20.85
2019-03-29T21:28:12.366Z,25.17
2019-03-29T21:30:42.928Z,25.55
2019-03-29T21:33:15.265Z,19.20
2019-03-29T21:35:45.589Z,18.48
2019-03-29T21:38:15.962Z,26.45
2019-03-29T21:40:46.233Z,26.48
2019-03-29T21:43:16.784Z,22.48
2019-03-29T21:45:46.889Z,17.57
2019-03-29T21:48:28.646Z,19.77
2019-03-29T21:50:49.592Z,22.07
2019-03-29T21:53:20.013Z,21.48
2019-03-29T21:55:50.545Z,24.80
2019-03-29T21:58:20.973Z,22.35
2019-03-29T22:00:51.807Z,26.27
2019-03-29T22:03:22.232Z,26.02
2019-03-29T22:05:52.581Z,41.13
2019-03-29T22:08:23.195Z,29.27
2019-03-29T22:10:53.784Z,26.73
2019-03-29T22:13:24.127Z,27.40
2019-03-29T22:15:54.484Z,25.45
2019-03-29T22:18:37.376Z,24.52
2019-03-29T22:20:56.758Z,27.83
2019-03-29T22:23:27.075Z,29.18
2019-03-29T22:25:57.631Z,26.95
2019-03-29T22:28:27.734Z,28.95
2019-03-29T22:30:58.686Z,32.90
2019-03-29T22:33:28.796Z,27.65
2019-03-29T22:36:00.457Z,31.65
2019-03-29T22:38:30.773Z,30.82
2019-03-29T22:41:01.210Z,28.40
2019-03-29T22:43:31.330Z,30.82
2019-03-29T22:46:01.909Z,32.40
2019-03-29T22:48:32.379Z,31.62
2019-03-29T22:51:02.824Z,33.95
2019-03-29T22:53:33.328Z,38.58
2019-03-29T22:56:03.771Z,40.52
2019-03-29T22:58:34.301Z,44.27
2019-03-29T23:01:04.697Z,33.67
2019-03-29T23:03:35.159Z,37.30
2019-03-29T23:06:05.889Z,38.40
2019-03-29T23:08:37.634Z,46.13
2019-03-29T23:11:08.264Z,43.20
2019-03-29T23:13:38.706Z,38.25
2019-03-29T23:16:08.817Z,41.90
2019-03-29T23:18:39.243Z,44.90
2019-03-29T23:21:09.559Z,47.58
2019-03-29T23:23:39.893Z,52.23
2019-03-29T23:26:10.316Z,46.20
2019-03-29T23:28:40.762Z,36.17
2019-03-29T23:31:11.272Z,41.65
2019-03-29T23:33:41.714Z,38.78
2019-03-29T23:36:12.126Z,38.73
2019-03-29T23:38:42.751Z,44.08
2019-03-29T23:41:13.076Z,37.78
2019-03-29T23:43:43.358Z,33.88
2019-03-29T23:46:13.737Z,35.83
2019-03-29T23:48:44.077Z,38.38
2019-03-29T23:51:14.585Z,34.67
2019-03-29T23:53:45.033Z,34.35
2019-03-29T23:56:15.337Z,39.30
2019-03-29T23:58:45.883Z,39.38
